This is the latest recevied weather packets stored in our database for station/object VK3CG. If no packets are shown the sender has not sent any weather packets the latest 10 day(s).
| Time | Temp. | Humidity | Pressure | Rain* | Wind** | Luminosity | Snow |
|---|---|---|---|---|---|---|---|
| 1777426267 | 20.56° C | 45% | 1039.4 hPa | 0 mm | - | 656 W/m² | - |
| 1777425369 | 20° C | 48% | 1039.7 hPa | 0 mm | - | 506 W/m² | - |
| 1777424451 | 18.33° C | 56% | 1039.7 hPa | 0 mm | - | 566 W/m² | - |
| 1777423543 | 16.11° C | 64% | 1039.8 hPa | 0 mm | - | 526 W/m² | - |
| 1777422639 | 15° C | 68% | 1039.8 hPa | 0 mm | - | 492 W/m² | - |
| 1777421739 | 14.44° C | 70% | 1039.9 hPa | 0 mm | - | 475 W/m² | - |
| 1777420831 | 13.33° C | 70% | 1040 hPa | 0 mm | - | 197 W/m² | - |
| 1777419936 | 12.78° C | 70% | 1040 hPa | 0 mm | - | 160 W/m² | - |
| 1777419026 | 12.22° C | 70% | 1040.1 hPa | 0 mm | - | 62 W/m² | - |
| 1777418121 | 11.67° C | 69% | 1040.2 hPa | 0 mm | - | 51 W/m² | - |
| 1777417221 | 11.67° C | 69% | 1040.2 hPa | 0 mm | - | 44 W/m² | - |
| 1777416319 | 11.67° C | 68% | 1040.1 hPa | 0 mm | - | 56 W/m² | - |
| 1777415418 | 11.11° C | 69% | 1040 hPa | 0 mm | - | 72 W/m² | - |
| 1777414528 | 11.11° C | 68% | 1039.9 hPa | 0 mm | - | 67 W/m² | - |
| 1777413613 | 11.11° C | 68% | 1039.7 hPa | 0 mm | - | 39 W/m² | - |
| 1777412709 | 10.56° C | 67% | 1039.7 hPa | 0 mm | - | 25 W/m² | - |
| 1777411807 | 10.56° C | 67% | 1039.5 hPa | 0 mm | - | 12 W/m² | - |
| 1777410906 | 10.56° C | 67% | 1039.4 hPa | 0 mm | - | 7 W/m² | - |
| 1777410009 | 10.56° C | 67% | 1039.2 hPa | 0 mm | - | 0 W/m² | - |
| 1777409101 | 10.56° C | 67% | 1038.9 hPa | 0 mm | - | 0 W/m² | - |
| 1777408262 | 10.56° C | 67% | 1038.8 hPa | 0 mm | - | 0 W/m² | - |
| 1777407374 | 11.11° C | 66% | 1038.8 hPa | 0 mm | - | 0 W/m² | - |
| 1777406464 | 11.11° C | 66% | 1038.7 hPa | 0 mm | - | 0 W/m² | - |
| 1777405557 | 11.11° C | 66% | 1038.7 hPa | 0 mm | - | 0 W/m² | - |
| 1777404661 | 11.11° C | 66% | 1038.5 hPa | 0 mm | - | 0 W/m² | - |
* Rain latest hour (hover to see other rain measurements)
** Current wind speed in m/s (hover to see current wind gust speed)